createdAt,value
2018-01-21T00:02:12.595Z,29.27
2018-01-21T00:04:40.176Z,29.67
2018-01-21T00:07:07.734Z,31.83
2018-01-21T00:09:35.325Z,29.13
2018-01-21T00:12:03.672Z,29.60
2018-01-21T00:14:31.271Z,30.13
2018-01-21T00:16:58.818Z,29.00
2018-01-21T00:19:26.368Z,29.17
2018-01-21T00:21:54.700Z,26.70
2018-01-21T00:24:22.243Z,26.80
2018-01-21T00:26:49.820Z,27.43
2018-01-21T00:29:17.368Z,26.50
2018-01-21T00:31:44.932Z,26.47
2018-01-21T00:34:12.497Z,29.07
2018-01-21T00:36:40.068Z,27.10
2018-01-21T00:39:07.624Z,23.93
2018-01-21T00:41:35.209Z,24.73
2018-01-21T00:44:02.781Z,27.80
2018-01-21T00:46:30.377Z,25.90
2018-01-21T00:48:57.914Z,25.47
2018-01-21T00:51:25.984Z,28.17
2018-01-21T00:53:53.544Z,26.87
2018-01-21T00:56:21.119Z,25.90
2018-01-21T00:58:48.684Z,28.17
2018-01-21T01:01:17.035Z,24.03
2018-01-21T01:03:44.588Z,23.73
2018-01-21T01:06:12.156Z,26.70
2018-01-21T01:08:40.488Z,27.93
2018-01-21T01:11:08.035Z,26.27
2018-01-21T01:13:35.648Z,27.70
2018-01-21T01:16:03.200Z,26.67
2018-01-21T01:18:30.803Z,26.10
2018-01-21T01:20:58.400Z,26.60
2018-01-21T01:23:25.985Z,24.40
2018-01-21T01:25:53.560Z,24.80
2018-01-21T01:28:21.164Z,23.83
2018-01-21T01:30:51.504Z,24.77
2018-01-21T01:33:19.079Z,23.10
2018-01-21T01:35:46.633Z,25.20
2018-01-21T01:38:14.249Z,27.27
2018-01-21T01:40:41.803Z,26.53
2018-01-21T01:43:10.139Z,28.57
2018-01-21T01:45:37.718Z,27.30
2018-01-21T01:48:05.283Z,28.43
2018-01-21T01:50:33.647Z,27.10
2018-01-21T01:53:01.209Z,28.40
2018-01-21T01:55:28.816Z,29.13
2018-01-21T01:57:56.365Z,26.87
2018-01-21T02:00:23.941Z,27.80
2018-01-21T02:02:51.501Z,29.70
2018-01-21T02:05:19.836Z,30.70
2018-01-21T02:07:47.389Z,29.60
2018-01-21T02:10:14.968Z,29.63
2018-01-21T02:12:42.528Z,28.40
2018-01-21T02:15:10.111Z,29.40
2018-01-21T02:17:37.671Z,31.37
2018-01-21T02:20:05.236Z,34.43
2018-01-21T02:22:32.804Z,31.97
2018-01-21T02:25:00.360Z,33.70
2018-01-21T02:27:27.943Z,34.43
2018-01-21T02:29:55.483Z,32.87
2018-01-21T02:32:23.077Z,32.07
2018-01-21T02:34:50.647Z,29.53
2018-01-21T02:37:18.231Z,30.20
2018-01-21T02:39:45.792Z,34.13
2018-01-21T02:42:14.136Z,35.40
2018-01-21T02:44:41.688Z,31.57
2018-01-21T02:47:09.271Z,32.67
2018-01-21T02:49:36.818Z,33.13
2018-01-21T02:52:04.380Z,38.43
2018-01-21T02:54:31.927Z,34.70
2018-01-21T02:56:59.473Z,32.97
2018-01-21T02:59:27.834Z,29.63
2018-01-21T03:01:55.390Z,30.60
2018-01-21T03:04:22.964Z,32.73
2018-01-21T03:06:51.276Z,33.60
2018-01-21T03:09:18.859Z,33.73
2018-01-21T03:11:46.411Z,34.30
2018-01-21T03:14:13.983Z,31.73
2018-01-21T03:16:41.540Z,31.80
2018-01-21T03:19:09.100Z,30.53
2018-01-21T03:21:36.673Z,34.17
2018-01-21T03:24:05.927Z,32.60
2018-01-21T03:26:33.536Z,31.73
2018-01-21T03:29:01.116Z,31.73
2018-01-21T03:31:28.987Z,31.07
2018-01-21T03:33:56.544Z,32.37
2018-01-21T03:36:24.123Z,32.40
2018-01-21T03:38:52.433Z,31.27
2018-01-21T03:41:20.000Z,28.97
2018-01-21T03:43:48.320Z,30.80
2018-01-21T03:46:15.901Z,32.50
2018-01-21T03:48:44.209Z,31.17
2018-01-21T03:51:11.793Z,30.57
2018-01-21T03:53:39.335Z,37.63
2018-01-21T03:56:06.911Z,34.90
2018-01-21T03:58:34.459Z,33.27
2018-01-21T04:01:02.021Z,35.50
2018-01-21T04:03:29.599Z,32.17
2018-01-21T04:05:57.168Z,33.47
2018-01-21T04:08:24.717Z,34.37
2018-01-21T04:10:52.295Z,36.80
2018-01-21T04:13:19.854Z,38.13
2018-01-21T04:15:47.411Z,40.90
2018-01-21T04:18:15.776Z,41.03
2018-01-21T04:20:43.314Z,36.10
2018-01-21T04:23:11.671Z,32.30
2018-01-21T04:25:39.207Z,34.30
2018-01-21T04:28:06.790Z,35.47
2018-01-21T04:30:35.147Z,33.37
2018-01-21T04:33:02.707Z,32.00
2018-01-21T04:35:30.292Z,31.43
2018-01-21T04:37:57.856Z,31.93
2018-01-21T04:40:25.404Z,30.87
2018-01-21T04:42:55.770Z,31.03
2018-01-21T04:45:24.075Z,31.80
2018-01-21T04:47:51.656Z,28.83
2018-01-21T04:50:19.975Z,31.10
2018-01-21T04:52:47.523Z,28.40
2018-01-21T04:55:15.089Z,29.67
2018-01-21T04:57:42.658Z,27.40
2018-01-21T05:00:10.260Z,30.90
2018-01-21T05:02:37.847Z,28.87
2018-01-21T05:05:05.440Z,25.77
2018-01-21T05:07:32.993Z,30.00
2018-01-21T05:10:00.740Z,27.97
2018-01-21T05:12:28.302Z,28.53
2018-01-21T05:14:56.640Z,26.47
2018-01-21T05:17:24.198Z,27.37
2018-01-21T05:19:52.542Z,26.73
2018-01-21T05:22:20.082Z,29.07
2018-01-21T05:24:48.418Z,28.17
2018-01-21T05:27:15.968Z,29.53
2018-01-21T05:29:43.511Z,31.03
2018-01-21T05:32:11.082Z,31.90
2018-01-21T05:34:38.629Z,33.83
2018-01-21T05:37:06.970Z,31.93
2018-01-21T05:39:34.509Z,33.10
2018-01-21T05:42:02.834Z,32.83
2018-01-21T05:44:30.391Z,32.50
2018-01-21T05:46:58.738Z,30.60
2018-01-21T05:49:26.281Z,29.40
2018-01-21T05:51:53.864Z,32.43
2018-01-21T05:54:22.171Z,30.77
2018-01-21T05:56:50.502Z,31.67
2018-01-21T05:59:18.059Z,38.43
2018-01-21T06:01:46.395Z,29.90
2018-01-21T06:04:13.958Z,31.20
2018-01-21T06:06:41.552Z,34.23
2018-01-21T06:09:09.133Z,32.13
2018-01-21T06:11:36.695Z,31.60
2018-01-21T06:14:05.032Z,36.67
2018-01-21T06:16:32.579Z,32.43
2018-01-21T06:19:00.965Z,33.73
2018-01-21T06:21:28.519Z,33.97
2018-01-21T06:23:56.091Z,33.50
2018-01-21T06:26:23.646Z,36.27
2018-01-21T06:28:51.210Z,36.00
2018-01-21T06:31:19.529Z,36.63
2018-01-21T06:33:47.099Z,36.47
2018-01-21T06:36:15.413Z,33.90
2018-01-21T06:38:42.985Z,31.97
2018-01-21T06:41:11.307Z,31.80
2018-01-21T06:43:38.875Z,32.27
2018-01-21T06:46:07.197Z,33.03
2018-01-21T06:48:34.747Z,35.33
2018-01-21T06:51:02.330Z,32.33
2018-01-21T06:53:30.687Z,35.17
2018-01-21T06:55:58.256Z,34.20
2018-01-21T06:58:25.928Z,35.13
2018-01-21T07:00:53.561Z,36.17
2018-01-21T07:03:21.078Z,38.07
2018-01-21T07:05:49.413Z,30.80
2018-01-21T07:08:16.964Z,36.97
2018-01-21T07:10:45.293Z,36.10
2018-01-21T07:13:12.840Z,36.50
2018-01-21T07:15:40.427Z,37.07
2018-01-21T07:18:08.741Z,38.87
2018-01-21T07:20:37.069Z,37.00
2018-01-21T07:23:04.613Z,35.13
2018-01-21T07:25:32.178Z,34.20
2018-01-21T07:27:59.731Z,36.60
2018-01-21T07:30:27.311Z,34.10
2018-01-21T07:32:54.870Z,37.50
2018-01-21T07:35:22.452Z,34.30
2018-01-21T07:37:50.751Z,32.47
2018-01-21T07:40:19.074Z,30.67
2018-01-21T07:42:46.640Z,29.03
2018-01-21T07:45:14.969Z,29.47
2018-01-21T07:47:42.527Z,32.10
2018-01-21T07:50:10.842Z,31.77
2018-01-21T07:52:38.423Z,30.07
2018-01-21T07:55:05.995Z,28.83
2018-01-21T07:57:34.380Z,28.40
2018-01-21T08:00:01.928Z,32.07
2018-01-21T08:02:29.491Z,29.77
2018-01-21T08:04:57.038Z,33.37
2018-01-21T08:07:25.379Z,28.83
2018-01-21T08:09:52.935Z,32.60
2018-01-21T08:12:21.272Z,33.63
2018-01-21T08:14:49.583Z,31.73
2018-01-21T08:17:17.146Z,33.57
2018-01-21T08:19:44.686Z,30.50
2018-01-21T08:22:12.252Z,27.47
2018-01-21T08:24:39.797Z,31.40
2018-01-21T08:27:07.362Z,30.47
2018-01-21T08:29:35.671Z,29.70
2018-01-21T08:32:03.211Z,28.27
2018-01-21T08:34:36.497Z,28.60
2018-01-21T08:37:09.741Z,28.83
2018-01-21T08:39:43.007Z,30.37
2018-01-21T08:45:11.427Z,30.07
2018-01-21T08:47:38.987Z,28.50
2018-01-21T08:50:06.536Z,27.63
2018-01-21T08:52:34.121Z,29.47
2018-01-21T08:55:01.667Z,30.20
2018-01-21T08:57:29.273Z,30.23
2018-01-21T08:59:56.832Z,33.27
2018-01-21T09:02:24.375Z,33.73
2018-01-21T09:04:51.938Z,32.33
2018-01-21T09:07:19.487Z,32.30
2018-01-21T09:09:47.044Z,29.80
2018-01-21T09:12:14.583Z,31.30
2018-01-21T09:14:42.139Z,31.70
2018-01-21T09:17:09.695Z,39.37
2018-01-21T09:19:37.258Z,34.30
2018-01-21T09:22:04.819Z,36.33
2018-01-21T09:24:34.172Z,31.80
2018-01-21T09:27:01.715Z,33.37
2018-01-21T09:29:29.267Z,29.23
2018-01-21T09:31:56.827Z,33.00
2018-01-21T09:34:24.371Z,34.50
2018-01-21T09:36:51.963Z,37.57
2018-01-21T09:39:20.270Z,38.00
2018-01-21T09:41:47.827Z,32.93
2018-01-21T09:44:15.368Z,32.77
2018-01-21T09:46:42.972Z,30.47
2018-01-21T09:49:10.526Z,32.80
2018-01-21T09:51:38.092Z,33.67
2018-01-21T09:54:05.652Z,31.47
2018-01-21T09:56:33.999Z,30.77
2018-01-21T09:59:01.535Z,36.73
2018-01-21T10:01:29.847Z,42.10
2018-01-21T10:03:58.178Z,31.83
2018-01-21T10:06:25.722Z,34.03
2018-01-21T10:08:54.052Z,33.07
2018-01-21T10:11:21.591Z,31.13
2018-01-21T10:13:49.275Z,31.40
2018-01-21T10:16:16.791Z,29.53
2018-01-21T10:18:45.119Z,30.13
2018-01-21T10:21:12.661Z,28.00
2018-01-21T10:23:40.219Z,30.07
2018-01-21T10:26:07.787Z,26.00
2018-01-21T10:28:35.343Z,28.63
2018-01-21T10:31:02.882Z,28.40
2018-01-21T10:33:30.451Z,31.30
2018-01-21T10:36:00.390Z,32.20
2018-01-21T10:38:29.797Z,29.20
2018-01-21T10:41:00.191Z,34.50
2018-01-21T10:43:30.780Z,28.90
2018-01-21T10:46:02.098Z,31.27
2018-01-21T10:48:30.356Z,33.70
2018-01-21T10:51:00.152Z,32.20
2018-01-21T10:53:30.259Z,29.80
2018-01-21T10:56:00.483Z,35.00
2018-01-21T10:58:34.687Z,32.43
2018-01-21T11:01:02.787Z,29.40
2018-01-21T11:03:34.419Z,28.70
2018-01-21T11:06:07.201Z,32.00
2018-01-21T11:08:36.511Z,28.73
2018-01-21T11:11:09.626Z,32.73
2018-01-21T11:13:43.058Z,31.00
2018-01-21T11:16:16.408Z,32.43
2018-01-21T11:18:44.025Z,30.50
2018-01-21T11:21:15.887Z,36.00
2018-01-21T11:23:47.172Z,32.60
2018-01-21T11:26:16.712Z,30.20
2018-01-21T11:28:47.769Z,35.27
2018-01-21T11:31:21.522Z,33.70
2018-01-21T11:33:52.830Z,33.60
2018-01-21T11:36:25.919Z,33.03
2018-01-21T11:38:58.275Z,31.57
2018-01-21T11:41:29.035Z,28.87
2018-01-21T11:43:56.684Z,32.73
2018-01-21T11:46:28.729Z,33.30
2018-01-21T11:49:02.620Z,33.97
2018-01-21T11:51:33.761Z,34.03
2018-01-21T11:54:01.586Z,36.13
2018-01-21T11:56:30.134Z,35.03
2018-01-21T11:58:59.459Z,37.30
2018-01-21T12:01:27.988Z,35.50
2018-01-21T12:04:00.059Z,36.47
2018-01-21T12:06:31.675Z,36.97
2018-01-21T12:09:00.902Z,35.37
2018-01-21T12:11:28.877Z,33.30
2018-01-21T12:14:00.948Z,35.43
2018-01-21T12:16:30.436Z,34.33
2018-01-21T12:19:00.228Z,33.60
2018-01-21T12:21:29.524Z,43.20
2018-01-21T12:23:59.972Z,38.27
2018-01-21T12:26:31.361Z,37.07
2018-01-21T12:29:03.946Z,35.30
2018-01-21T12:31:31.535Z,33.70
2018-01-21T12:34:00.323Z,34.93
2018-01-21T12:36:27.885Z,34.57
2018-01-21T12:38:56.211Z,33.50
2018-01-21T12:41:23.764Z,32.60
2018-01-21T12:43:52.114Z,32.40
2018-01-21T12:46:19.691Z,33.33
2018-01-21T12:48:47.264Z,32.97
2018-01-21T12:51:14.810Z,35.10
2018-01-21T12:53:42.379Z,33.77
2018-01-21T12:56:09.931Z,33.60
2018-01-21T12:58:37.498Z,31.37
2018-01-21T13:01:05.064Z,33.63
2018-01-21T13:03:33.372Z,34.03
2018-01-21T13:06:00.955Z,33.73
2018-01-21T13:08:28.529Z,31.00
2018-01-21T13:10:56.878Z,27.73
2018-01-21T13:13:24.434Z,29.03
2018-01-21T13:15:51.995Z,28.67
2018-01-21T13:18:20.675Z,28.23
2018-01-21T13:20:48.250Z,28.03
2018-01-21T13:23:15.793Z,28.10
2018-01-21T13:25:43.377Z,25.27
2018-01-21T13:28:10.991Z,25.77
2018-01-21T13:30:38.558Z,25.10
2018-01-21T13:33:06.099Z,21.80
2018-01-21T13:35:34.355Z,24.60
2018-01-21T13:38:01.944Z,25.33
2018-01-21T13:40:29.488Z,24.87
2018-01-21T13:42:57.807Z,23.03
2018-01-21T13:45:25.353Z,25.23
2018-01-21T13:47:52.964Z,22.93
2018-01-21T13:50:20.499Z,23.53
2018-01-21T13:52:48.315Z,22.90
2018-01-21T13:55:16.561Z,23.80
2018-01-21T13:57:44.128Z,26.10
2018-01-21T14:00:11.671Z,23.10
2018-01-21T14:02:39.248Z,20.87
2018-01-21T14:05:06.839Z,19.67
2018-01-21T14:07:34.391Z,22.40
2018-01-21T14:10:02.684Z,22.83
2018-01-21T14:12:30.335Z,21.50
2018-01-21T14:14:58.688Z,21.50
2018-01-21T14:17:27.147Z,22.67
2018-01-21T14:19:54.709Z,21.70
2018-01-21T14:22:22.307Z,22.10
2018-01-21T14:24:50.634Z,21.07
2018-01-21T14:27:18.191Z,21.77
2018-01-21T14:29:47.012Z,22.37
2018-01-21T14:32:15.320Z,21.07
2018-01-21T14:34:43.685Z,20.57
2018-01-21T14:37:11.250Z,17.90
2018-01-21T14:39:38.831Z,24.60
2018-01-21T14:42:06.703Z,16.70
2018-01-21T14:44:34.274Z,18.60
2018-01-21T14:47:03.455Z,20.80
2018-01-21T14:49:31.532Z,22.30
2018-01-21T14:51:59.088Z,18.37
2018-01-21T14:54:26.662Z,22.07
2018-01-21T14:56:54.193Z,20.00
2018-01-21T14:59:21.769Z,18.47
2018-01-21T15:01:49.304Z,17.60
2018-01-21T15:04:17.619Z,19.23
2018-01-21T15:06:45.163Z,18.67
2018-01-21T15:09:12.698Z,21.30
2018-01-21T15:11:40.327Z,17.80
2018-01-21T15:14:07.867Z,20.37
2018-01-21T15:16:35.461Z,20.63
2018-01-21T15:19:03.816Z,19.50
2018-01-21T15:21:31.404Z,17.90
2018-01-21T15:23:58.983Z,17.90
2018-01-21T15:26:27.468Z,18.13
2018-01-21T15:28:55.015Z,18.83
2018-01-21T15:31:22.599Z,22.57
2018-01-21T15:33:50.150Z,20.83
2018-01-21T15:36:18.475Z,19.03
2018-01-21T15:38:46.008Z,17.30
2018-01-21T15:41:13.574Z,18.13
2018-01-21T15:43:41.114Z,17.20
2018-01-21T15:46:08.674Z,19.87
2018-01-21T15:48:36.219Z,18.47
2018-01-21T15:51:03.788Z,22.77
2018-01-21T15:53:36.937Z,18.10
2018-01-21T15:56:05.182Z,19.23
2018-01-21T15:58:32.742Z,18.57
2018-01-21T16:01:01.045Z,18.50
2018-01-21T16:03:28.655Z,17.80
2018-01-21T16:05:56.211Z,20.87
2018-01-21T16:08:24.539Z,21.17
2018-01-21T16:10:52.666Z,20.40
2018-01-21T16:13:20.225Z,18.90
2018-01-21T16:15:47.774Z,22.57
2018-01-21T16:18:15.344Z,20.30
2018-01-21T16:20:42.879Z,21.03
2018-01-21T16:23:10.470Z,22.50
2018-01-21T16:25:38.265Z,21.40
2018-01-21T16:28:05.831Z,22.63
2018-01-21T16:30:33.396Z,18.50
2018-01-21T16:33:07.559Z,21.30
2018-01-21T16:35:36.144Z,26.10
2018-01-21T16:38:16.488Z,24.10
2018-01-21T16:40:44.262Z,24.33
2018-01-21T16:43:12.060Z,23.27
2018-01-21T16:45:40.431Z,24.60
2018-01-21T16:48:07.964Z,23.13
2018-01-21T16:50:35.535Z,22.90
2018-01-21T16:53:03.084Z,21.20
2018-01-21T16:55:32.034Z,21.43
2018-01-21T16:57:59.641Z,21.00
2018-01-21T17:00:27.258Z,21.83
2018-01-21T17:02:55.565Z,24.20
2018-01-21T17:05:23.151Z,23.73
2018-01-21T17:07:50.689Z,21.20
2018-01-21T17:10:18.263Z,22.37
2018-01-21T17:12:45.844Z,20.87
2018-01-21T17:15:13.403Z,19.87
2018-01-21T17:17:40.938Z,21.40
2018-01-21T17:20:08.472Z,19.97
2018-01-21T17:22:36.030Z,20.67
2018-01-21T17:25:03.595Z,20.50
2018-01-21T17:27:31.176Z,18.57
2018-01-21T17:29:58.712Z,21.43
2018-01-21T17:32:26.263Z,18.33
2018-01-21T17:34:54.600Z,18.70
2018-01-21T17:37:22.168Z,18.70
2018-01-21T17:39:49.702Z,20.03
2018-01-21T17:42:17.280Z,19.03
2018-01-21T17:44:44.844Z,18.70
2018-01-21T17:47:12.424Z,19.50
2018-01-21T17:49:39.959Z,16.40
2018-01-21T17:52:07.531Z,17.70
2018-01-21T17:54:35.072Z,17.63
2018-01-21T17:57:02.632Z,18.60
2018-01-21T17:59:30.743Z,18.57
2018-01-21T18:01:58.279Z,18.47
2018-01-21T18:04:25.844Z,16.73
2018-01-21T18:06:53.391Z,17.60
2018-01-21T18:09:20.950Z,18.20
2018-01-21T18:11:49.259Z,18.77
2018-01-21T18:14:17.591Z,18.63
2018-01-21T18:16:45.155Z,16.90
2018-01-21T18:19:12.742Z,18.63
2018-01-21T18:21:40.287Z,19.03
2018-01-21T18:24:09.321Z,18.67
2018-01-21T18:26:36.892Z,17.03
2018-01-21T18:29:04.460Z,19.77
2018-01-21T18:31:32.007Z,17.67
2018-01-21T18:33:59.571Z,17.03
2018-01-21T18:36:27.144Z,21.37
2018-01-21T18:38:55.448Z,17.37
2018-01-21T18:41:23.775Z,14.90
2018-01-21T18:43:51.322Z,15.37
2018-01-21T18:46:18.891Z,16.70
2018-01-21T18:48:46.432Z,17.57
2018-01-21T18:51:13.993Z,17.00
2018-01-21T18:53:42.308Z,27.20
2018-01-21T18:56:09.871Z,18.20
2018-01-21T18:58:38.185Z,15.30
2018-01-21T19:01:05.746Z,15.63
2018-01-21T19:03:33.295Z,15.37
2018-01-21T19:06:00.882Z,17.43
2018-01-21T19:08:28.443Z,16.33
2018-01-21T19:10:56.014Z,14.70
2018-01-21T19:13:24.348Z,15.20
2018-01-21T19:15:51.888Z,15.57
2018-01-21T19:18:19.476Z,16.27
2018-01-21T19:20:47.796Z,16.57
2018-01-21T19:23:15.359Z,15.90
2018-01-21T19:25:43.694Z,15.57
2018-01-21T19:28:11.239Z,15.80
2018-01-21T19:30:39.400Z,16.33
2018-01-21T19:33:06.959Z,16.20
2018-01-21T19:35:34.540Z,14.93
2018-01-21T19:38:02.148Z,12.27
2018-01-21T19:40:30.502Z,13.23
2018-01-21T19:43:02.685Z,13.77
2018-01-21T19:45:30.999Z,14.23
2018-01-21T19:47:58.720Z,15.60
2018-01-21T19:50:26.260Z,14.97
2018-01-21T19:52:54.562Z,13.83
2018-01-21T19:55:22.903Z,16.97
2018-01-21T19:57:50.511Z,16.73
2018-01-21T20:00:18.077Z,15.57
2018-01-21T20:02:45.621Z,18.03
2018-01-21T20:05:13.191Z,17.20
2018-01-21T20:07:40.759Z,18.03
2018-01-21T20:10:08.327Z,16.73
2018-01-21T20:12:35.886Z,18.97
2018-01-21T20:15:03.489Z,18.30
2018-01-21T20:17:31.118Z,17.10
2018-01-21T20:19:58.677Z,17.50
2018-01-21T20:22:26.223Z,17.00
2018-01-21T20:24:53.791Z,17.33
2018-01-21T20:27:22.091Z,15.43
2018-01-21T20:29:50.404Z,16.60
2018-01-21T20:32:17.974Z,18.30
2018-01-21T20:34:46.284Z,15.53
2018-01-21T20:37:14.609Z,16.90
2018-01-21T20:39:42.149Z,19.20
2018-01-21T20:42:09.703Z,20.40
2018-01-21T20:44:41.470Z,20.30
2018-01-21T20:47:09.589Z,19.17
2018-01-21T20:49:37.126Z,21.07
2018-01-21T20:52:10.443Z,18.50
2018-01-21T20:54:41.240Z,18.70
2018-01-21T20:57:08.859Z,20.83
2018-01-21T20:59:37.323Z,18.67
2018-01-21T21:02:04.903Z,19.70
2018-01-21T21:04:32.492Z,20.07
2018-01-21T21:07:00.830Z,20.70
2018-01-21T21:09:29.413Z,22.27
2018-01-21T21:11:56.976Z,21.07
2018-01-21T21:14:24.548Z,22.33
2018-01-21T21:16:57.194Z,22.00
2018-01-21T21:19:32.231Z,22.20
2018-01-21T21:21:59.875Z,22.03
2018-01-21T21:24:28.412Z,24.83
2018-01-21T21:26:56.144Z,22.90
2018-01-21T21:29:23.889Z,22.97
2018-01-21T21:31:51.692Z,23.37
2018-01-21T21:34:19.545Z,23.07
2018-01-21T21:36:47.156Z,20.67
2018-01-21T21:39:14.924Z,20.87
2018-01-21T21:41:42.535Z,19.60
2018-01-21T21:44:10.128Z,19.70
2018-01-21T21:46:37.675Z,18.93
2018-01-21T21:49:06.002Z,21.57
2018-01-21T21:51:33.556Z,21.27
2018-01-21T21:54:01.896Z,17.97
2018-01-21T21:56:29.492Z,21.10
2018-01-21T21:58:57.027Z,18.17
2018-01-21T22:01:25.361Z,20.00
2018-01-21T22:03:52.895Z,18.70
2018-01-21T22:06:20.465Z,18.30
2018-01-21T22:08:48.115Z,19.57
2018-01-21T22:11:16.019Z,19.33
2018-01-21T22:13:43.595Z,19.40
2018-01-21T22:16:11.152Z,22.77
2018-01-21T22:18:39.465Z,20.60
2018-01-21T22:21:07.100Z,20.47
2018-01-21T22:23:34.767Z,20.57
2018-01-21T22:26:02.368Z,22.50
2018-01-21T22:28:29.903Z,19.30
2018-01-21T22:30:57.488Z,20.47
2018-01-21T22:33:25.092Z,20.67
2018-01-21T22:35:54.233Z,19.00
2018-01-21T22:38:24.727Z,20.20
2018-01-21T22:41:07.563Z,20.20
2018-01-21T22:43:35.262Z,20.93
2018-01-21T22:46:03.612Z,17.70
2018-01-21T22:48:31.796Z,19.97
2018-01-21T22:50:59.727Z,18.63
2018-01-21T22:53:29.233Z,20.07
2018-01-21T22:55:56.863Z,18.83
2018-01-21T22:58:25.191Z,21.47
2018-01-21T23:00:52.736Z,18.90
2018-01-21T23:03:20.287Z,17.73
2018-01-21T23:05:47.834Z,18.57
2018-01-21T23:08:16.159Z,17.97
2018-01-21T23:10:43.721Z,16.90
2018-01-21T23:13:12.050Z,17.53
2018-01-21T23:15:39.592Z,18.00
2018-01-21T23:18:07.927Z,18.43
2018-01-21T23:23:48.943Z,18.87
2018-01-21T23:26:17.754Z,18.03
2018-01-21T23:28:45.318Z,16.60
2018-01-21T23:31:12.869Z,17.07
2018-01-21T23:33:40.434Z,17.23
2018-01-21T23:36:07.992Z,15.00
2018-01-21T23:38:36.324Z,15.90
2018-01-21T23:41:03.876Z,17.20
2018-01-21T23:43:32.189Z,17.00
2018-01-21T23:46:00.520Z,17.77
2018-01-21T23:48:28.075Z,16.60
2018-01-21T23:50:56.400Z,15.77
2018-01-21T23:53:23.935Z,16.43
2018-01-21T23:55:51.496Z,16.13
2018-01-21T23:58:19.038Z,17.20
